sensor_id;sensor_type;location;lat;lon;timestamp;P1;durP1;ratioP1;P2;durP2;ratioP2
11008;SDS011;5557;51.670;7.788;2023-08-31T00:01:32;25.90;;;17.33;;
11008;SDS011;5557;51.670;7.788;2023-08-31T00:04:02;31.47;;;17.60;;
11008;SDS011;5557;51.670;7.788;2023-08-31T00:06:31;29.27;;;17.27;;
11008;SDS011;5557;51.670;7.788;2023-08-31T00:08:58;28.83;;;17.60;;
11008;SDS011;5557;51.670;7.788;2023-08-31T00:11:27;23.03;;;16.67;;
11008;SDS011;5557;51.670;7.788;2023-08-31T00:13:54;33.90;;;16.50;;
11008;SDS011;5557;51.670;7.788;2023-08-31T00:16:25;22.63;;;16.23;;
11008;SDS011;5557;51.670;7.788;2023-08-31T00:18:53;31.43;;;17.20;;
11008;SDS011;5557;51.670;7.788;2023-08-31T00:21:23;26.27;;;17.13;;
11008;SDS011;5557;51.670;7.788;2023-08-31T00:23:52;23.97;;;15.90;;
11008;SDS011;5557;51.670;7.788;2023-08-31T00:26:20;29.67;;;15.00;;
11008;SDS011;5557;51.670;7.788;2023-08-31T00:28:47;27.47;;;15.10;;
11008;SDS011;5557;51.670;7.788;2023-08-31T00:31:15;30.70;;;15.37;;
11008;SDS011;5557;51.670;7.788;2023-08-31T00:33:42;29.53;;;14.40;;
11008;SDS011;5557;51.670;7.788;2023-08-31T00:36:09;20.83;;;15.30;;
11008;SDS011;5557;51.670;7.788;2023-08-31T00:38:36;36.53;;;14.97;;
11008;SDS011;5557;51.670;7.788;2023-08-31T00:41:03;19.20;;;13.13;;
11008;SDS011;5557;51.670;7.788;2023-08-31T00:43:33;18.03;;;14.40;;
11008;SDS011;5557;51.670;7.788;2023-08-31T00:46:00;17.07;;;12.60;;
11008;SDS011;5557;51.670;7.788;2023-08-31T00:48:27;24.13;;;13.03;;
11008;SDS011;5557;51.670;7.788;2023-08-31T00:50:54;28.33;;;13.73;;
11008;SDS011;5557;51.670;7.788;2023-08-31T00:53:24;25.53;;;15.53;;
11008;SDS011;5557;51.670;7.788;2023-08-31T00:55:53;31.60;;;19.57;;
11008;SDS011;5557;51.670;7.788;2023-08-31T00:58:20;59.67;;;29.07;;
11008;SDS011;5557;51.670;7.788;2023-08-31T01:10:43;18.83;;;12.03;;
11008;SDS011;5557;51.670;7.788;2023-08-31T01:13:00;18.70;;;11.80;;
11008;SDS011;5557;51.670;7.788;2023-08-31T01:15:31;50.57;;;22.47;;
11008;SDS011;5557;51.670;7.788;2023-08-31T01:17:59;27.67;;;12.57;;
11008;SDS011;5557;51.670;7.788;2023-08-31T01:20:31;19.77;;;13.23;;
11008;SDS011;5557;51.670;7.788;2023-08-31T01:23:06;23.83;;;12.20;;
11008;SDS011;5557;51.670;7.788;2023-08-31T01:25:37;18.27;;;10.97;;
11008;SDS011;5557;51.670;7.788;2023-08-31T01:28:04;18.93;;;12.17;;
11008;SDS011;5557;51.670;7.788;2023-08-31T01:30:32;19.70;;;10.53;;
11008;SDS011;5557;51.670;7.788;2023-08-31T01:33:00;13.07;;;9.40;;
11008;SDS011;5557;51.670;7.788;2023-08-31T01:35:30;22.17;;;9.33;;
11008;SDS011;5557;51.670;7.788;2023-08-31T01:38:04;20.63;;;10.20;;
11008;SDS011;5557;51.670;7.788;2023-08-31T01:40:36;12.47;;;11.00;;
11008;SDS011;5557;51.670;7.788;2023-08-31T01:43:06;14.47;;;10.13;;
11008;SDS011;5557;51.670;7.788;2023-08-31T01:45:37;15.23;;;9.70;;
11008;SDS011;5557;51.670;7.788;2023-08-31T01:48:05;16.70;;;11.77;;
11008;SDS011;5557;51.670;7.788;2023-08-31T01:50:33;14.10;;;9.73;;
11008;SDS011;5557;51.670;7.788;2023-08-31T01:53:01;26.03;;;11.90;;
11008;SDS011;5557;51.670;7.788;2023-08-31T01:55:28;10.20;;;9.13;;
11008;SDS011;5557;51.670;7.788;2023-08-31T01:57:55;13.13;;;8.60;;
11008;SDS011;5557;51.670;7.788;2023-08-31T02:00:22;10.63;;;9.53;;
11008;SDS011;5557;51.670;7.788;2023-08-31T02:02:49;25.00;;;10.23;;
11008;SDS011;5557;51.670;7.788;2023-08-31T02:05:18;17.03;;;9.80;;
11008;SDS011;5557;51.670;7.788;2023-08-31T02:07:45;11.83;;;9.63;;
11008;SDS011;5557;51.670;7.788;2023-08-31T02:10:12;18.93;;;12.83;;
11008;SDS011;5557;51.670;7.788;2023-08-31T02:12:39;16.57;;;8.97;;
11008;SDS011;5557;51.670;7.788;2023-08-31T02:15:06;15.00;;;8.10;;
11008;SDS011;5557;51.670;7.788;2023-08-31T02:17:36;20.43;;;8.33;;
11008;SDS011;5557;51.670;7.788;2023-08-31T02:20:03;9.10;;;8.17;;
11008;SDS011;5557;51.670;7.788;2023-08-31T02:22:36;15.70;;;8.73;;
11008;SDS011;5557;51.670;7.788;2023-08-31T02:25:03;16.27;;;9.70;;
11008;SDS011;5557;51.670;7.788;2023-08-31T02:27:39;11.60;;;8.77;;
11008;SDS011;5557;51.670;7.788;2023-08-31T02:30:06;15.67;;;8.90;;
11008;SDS011;5557;51.670;7.788;2023-08-31T02:32:34;13.43;;;9.30;;
11008;SDS011;5557;51.670;7.788;2023-08-31T02:35:02;9.60;;;8.23;;
11008;SDS011;5557;51.670;7.788;2023-08-31T02:37:33;13.43;;;8.70;;
11008;SDS011;5557;51.670;7.788;2023-08-31T02:40:01;15.53;;;8.20;;
11008;SDS011;5557;51.670;7.788;2023-08-31T02:42:29;22.00;;;9.30;;
11008;SDS011;5557;51.670;7.788;2023-08-31T02:44:56;9.57;;;7.70;;
11008;SDS011;5557;51.670;7.788;2023-08-31T02:47:24;12.13;;;7.67;;
11008;SDS011;5557;51.670;7.788;2023-08-31T02:49:52;10.43;;;8.40;;
11008;SDS011;5557;51.670;7.788;2023-08-31T02:52:20;12.20;;;7.00;;
11008;SDS011;5557;51.670;7.788;2023-08-31T02:54:48;11.20;;;8.37;;
11008;SDS011;5557;51.670;7.788;2023-08-31T02:57:17;8.93;;;7.67;;
11008;SDS011;5557;51.670;7.788;2023-08-31T02:59:50;19.10;;;8.13;;
11008;SDS011;5557;51.670;7.788;2023-08-31T03:02:18;11.83;;;7.47;;
11008;SDS011;5557;51.670;7.788;2023-08-31T03:04:46;9.43;;;8.13;;
11008;SDS011;5557;51.670;7.788;2023-08-31T03:07:27;8.73;;;7.93;;
11008;SDS011;5557;51.670;7.788;2023-08-31T03:09:56;10.23;;;8.03;;
11008;SDS011;5557;51.670;7.788;2023-08-31T03:12:24;12.63;;;7.97;;
11008;SDS011;5557;51.670;7.788;2023-08-31T03:14:53;15.10;;;9.00;;
11008;SDS011;5557;51.670;7.788;2023-08-31T03:17:24;12.23;;;8.83;;
11008;SDS011;5557;51.670;7.788;2023-08-31T03:19:57;13.33;;;8.70;;
11008;SDS011;5557;51.670;7.788;2023-08-31T03:22:26;9.80;;;8.57;;
11008;SDS011;5557;51.670;7.788;2023-08-31T03:24:55;13.90;;;9.20;;
11008;SDS011;5557;51.670;7.788;2023-08-31T03:27:24;12.33;;;9.90;;
11008;SDS011;5557;51.670;7.788;2023-08-31T03:29:54;9.43;;;8.63;;
11008;SDS011;5557;51.670;7.788;2023-08-31T03:32:26;10.20;;;9.20;;
11008;SDS011;5557;51.670;7.788;2023-08-31T03:34:54;10.00;;;8.70;;
11008;SDS011;5557;51.670;7.788;2023-08-31T03:37:22;14.00;;;10.13;;
11008;SDS011;5557;51.670;7.788;2023-08-31T03:39:51;17.00;;;10.23;;
11008;SDS011;5557;51.670;7.788;2023-08-31T03:42:19;18.33;;;10.73;;
11008;SDS011;5557;51.670;7.788;2023-08-31T03:44:46;10.33;;;9.17;;
11008;SDS011;5557;51.670;7.788;2023-08-31T03:47:13;16.20;;;10.70;;
11008;SDS011;5557;51.670;7.788;2023-08-31T03:49:40;13.13;;;10.60;;
11008;SDS011;5557;51.670;7.788;2023-08-31T03:52:07;17.17;;;11.27;;
11008;SDS011;5557;51.670;7.788;2023-08-31T03:54:34;14.27;;;10.27;;
11008;SDS011;5557;51.670;7.788;2023-08-31T03:57:02;20.27;;;11.30;;
11008;SDS011;5557;51.670;7.788;2023-08-31T03:59:29;20.10;;;12.00;;
11008;SDS011;5557;51.670;7.788;2023-08-31T04:01:57;14.10;;;12.20;;
11008;SDS011;5557;51.670;7.788;2023-08-31T04:04:26;23.80;;;14.17;;
11008;SDS011;5557;51.670;7.788;2023-08-31T04:06:55;22.00;;;13.03;;
11008;SDS011;5557;51.670;7.788;2023-08-31T04:09:23;18.37;;;12.60;;
11008;SDS011;5557;51.670;7.788;2023-08-31T04:11:51;21.67;;;13.27;;
11008;SDS011;5557;51.670;7.788;2023-08-31T04:14:19;23.37;;;14.70;;
11008;SDS011;5557;51.670;7.788;2023-08-31T04:16:47;16.97;;;12.93;;
11008;SDS011;5557;51.670;7.788;2023-08-31T04:19:18;14.73;;;12.43;;
11008;SDS011;5557;51.670;7.788;2023-08-31T04:21:46;18.53;;;13.53;;
11008;SDS011;5557;51.670;7.788;2023-08-31T04:24:15;20.13;;;13.00;;
11008;SDS011;5557;51.670;7.788;2023-08-31T04:26:43;15.63;;;12.70;;
11008;SDS011;5557;51.670;7.788;2023-08-31T04:29:12;20.40;;;11.80;;
11008;SDS011;5557;51.670;7.788;2023-08-31T04:31:41;17.10;;;13.93;;
11008;SDS011;5557;51.670;7.788;2023-08-31T04:34:08;16.57;;;12.93;;
11008;SDS011;5557;51.670;7.788;2023-08-31T04:36:36;18.20;;;13.20;;
11008;SDS011;5557;51.670;7.788;2023-08-31T04:39:03;14.33;;;12.70;;
11008;SDS011;5557;51.670;7.788;2023-08-31T04:41:31;23.70;;;13.43;;
11008;SDS011;5557;51.670;7.788;2023-08-31T04:43:58;23.37;;;13.37;;
11008;SDS011;5557;51.670;7.788;2023-08-31T04:46:28;21.00;;;15.10;;
11008;SDS011;5557;51.670;7.788;2023-08-31T04:48:57;20.90;;;14.67;;
11008;SDS011;5557;51.670;7.788;2023-08-31T04:51:34;22.30;;;13.37;;
11008;SDS011;5557;51.670;7.788;2023-08-31T04:54:06;24.73;;;14.23;;
11008;SDS011;5557;51.670;7.788;2023-08-31T04:56:39;18.93;;;13.70;;
11008;SDS011;5557;51.670;7.788;2023-08-31T04:59:11;20.40;;;14.40;;
11008;SDS011;5557;51.670;7.788;2023-08-31T05:01:39;19.63;;;14.43;;
11008;SDS011;5557;51.670;7.788;2023-08-31T05:04:07;23.87;;;15.00;;
11008;SDS011;5557;51.670;7.788;2023-08-31T05:06:35;20.93;;;14.23;;
11008;SDS011;5557;51.670;7.788;2023-08-31T05:09:04;15.50;;;13.40;;
11008;SDS011;5557;51.670;7.788;2023-08-31T05:11:33;17.03;;;13.77;;
11008;SDS011;5557;51.670;7.788;2023-08-31T05:14:03;28.13;;;13.60;;
11008;SDS011;5557;51.670;7.788;2023-08-31T05:16:32;23.80;;;14.10;;
11008;SDS011;5557;51.670;7.788;2023-08-31T05:19:15;19.57;;;13.97;;
11008;SDS011;5557;51.670;7.788;2023-08-31T05:21:42;15.23;;;12.77;;
11008;SDS011;5557;51.670;7.788;2023-08-31T05:24:09;15.83;;;13.17;;
11008;SDS011;5557;51.670;7.788;2023-08-31T05:26:47;14.60;;;11.57;;
11008;SDS011;5557;51.670;7.788;2023-08-31T05:29:15;14.53;;;11.90;;
11008;SDS011;5557;51.670;7.788;2023-08-31T05:31:43;14.43;;;12.33;;
11008;SDS011;5557;51.670;7.788;2023-08-31T05:34:10;14.03;;;12.60;;
11008;SDS011;5557;51.670;7.788;2023-08-31T05:36:37;15.57;;;12.93;;
11008;SDS011;5557;51.670;7.788;2023-08-31T05:39:04;20.27;;;12.80;;
11008;SDS011;5557;51.670;7.788;2023-08-31T05:41:31;15.20;;;13.13;;
11008;SDS011;5557;51.670;7.788;2023-08-31T05:43:58;15.70;;;13.17;;
11008;SDS011;5557;51.670;7.788;2023-08-31T05:46:25;14.60;;;12.50;;
11008;SDS011;5557;51.670;7.788;2023-08-31T05:48:53;15.90;;;13.63;;
11008;SDS011;5557;51.670;7.788;2023-08-31T05:51:21;15.70;;;13.60;;
11008;SDS011;5557;51.670;7.788;2023-08-31T05:53:48;14.70;;;12.40;;
11008;SDS011;5557;51.670;7.788;2023-08-31T05:56:15;14.73;;;13.03;;
11008;SDS011;5557;51.670;7.788;2023-08-31T05:58:42;14.70;;;13.17;;
11008;SDS011;5557;51.670;7.788;2023-08-31T06:01:09;20.00;;;14.30;;
11008;SDS011;5557;51.670;7.788;2023-08-31T06:03:39;14.33;;;12.83;;
11008;SDS011;5557;51.670;7.788;2023-08-31T06:06:06;14.63;;;13.13;;
11008;SDS011;5557;51.670;7.788;2023-08-31T06:08:33;16.10;;;12.70;;
11008;SDS011;5557;51.670;7.788;2023-08-31T06:11:00;13.83;;;12.53;;
11008;SDS011;5557;51.670;7.788;2023-08-31T06:13:27;14.37;;;12.97;;
11008;SDS011;5557;51.670;7.788;2023-08-31T06:15:54;14.90;;;11.27;;
11008;SDS011;5557;51.670;7.788;2023-08-31T06:18:22;13.60;;;12.07;;
11008;SDS011;5557;51.670;7.788;2023-08-31T06:20:52;13.17;;;9.97;;
11008;SDS011;5557;51.670;7.788;2023-08-31T06:23:19;11.20;;;10.07;;
11008;SDS011;5557;51.670;7.788;2023-08-31T06:25:46;14.20;;;9.60;;
11008;SDS011;5557;51.670;7.788;2023-08-31T06:28:13;11.17;;;8.43;;
11008;SDS011;5557;51.670;7.788;2023-08-31T06:30:41;9.53;;;8.67;;
11008;SDS011;5557;51.670;7.788;2023-08-31T06:33:13;9.50;;;8.30;;
11008;SDS011;5557;51.670;7.788;2023-08-31T06:35:42;9.60;;;8.67;;
11008;SDS011;5557;51.670;7.788;2023-08-31T06:38:09;9.60;;;8.30;;
11008;SDS011;5557;51.670;7.788;2023-08-31T06:40:36;8.73;;;7.90;;
11008;SDS011;5557;51.670;7.788;2023-08-31T06:43:04;8.43;;;7.63;;
11008;SDS011;5557;51.670;7.788;2023-08-31T06:45:31;9.70;;;8.80;;
11008;SDS011;5557;51.670;7.788;2023-08-31T06:47:58;7.50;;;6.77;;
11008;SDS011;5557;51.670;7.788;2023-08-31T06:50:26;8.70;;;7.80;;
11008;SDS011;5557;51.670;7.788;2023-08-31T06:52:53;15.60;;;7.40;;
11008;SDS011;5557;51.670;7.788;2023-08-31T06:55:21;7.83;;;7.03;;
11008;SDS011;5557;51.670;7.788;2023-08-31T06:57:50;7.00;;;6.50;;
11008;SDS011;5557;51.670;7.788;2023-08-31T07:00:17;7.53;;;6.70;;
11008;SDS011;5557;51.670;7.788;2023-08-31T07:02:45;7.77;;;7.00;;
11008;SDS011;5557;51.670;7.788;2023-08-31T07:05:12;9.47;;;7.40;;
11008;SDS011;5557;51.670;7.788;2023-08-31T07:07:40;10.07;;;7.27;;
11008;SDS011;5557;51.670;7.788;2023-08-31T07:10:07;10.23;;;7.03;;
11008;SDS011;5557;51.670;7.788;2023-08-31T07:12:34;9.53;;;7.87;;
11008;SDS011;5557;51.670;7.788;2023-08-31T07:15:02;8.50;;;7.70;;
11008;SDS011;5557;51.670;7.788;2023-08-31T07:17:30;9.40;;;7.67;;
11008;SDS011;5557;51.670;7.788;2023-08-31T07:19:57;8.10;;;7.40;;
11008;SDS011;5557;51.670;7.788;2023-08-31T07:22:24;10.67;;;7.80;;
11008;SDS011;5557;51.670;7.788;2023-08-31T07:24:52;8.70;;;7.83;;
11008;SDS011;5557;51.670;7.788;2023-08-31T07:27:19;9.27;;;8.40;;
11008;SDS011;5557;51.670;7.788;2023-08-31T07:29:46;17.07;;;8.07;;
11008;SDS011;5557;51.670;7.788;2023-08-31T07:32:13;8.30;;;7.60;;
11008;SDS011;5557;51.670;7.788;2023-08-31T07:34:40;7.50;;;6.83;;
11008;SDS011;5557;51.670;7.788;2023-08-31T07:37:07;8.87;;;6.00;;
11008;SDS011;5557;51.670;7.788;2023-08-31T07:39:36;14.90;;;5.50;;
11008;SDS011;5557;51.670;7.788;2023-08-31T07:42:04;4.90;;;4.50;;
11008;SDS011;5557;51.670;7.788;2023-08-31T07:44:32;4.80;;;4.33;;
11008;SDS011;5557;51.670;7.788;2023-08-31T07:46:59;5.33;;;4.33;;
11008;SDS011;5557;51.670;7.788;2023-08-31T07:49:26;3.97;;;3.57;;
11008;SDS011;5557;51.670;7.788;2023-08-31T07:51:53;3.40;;;3.13;;
11008;SDS011;5557;51.670;7.788;2023-08-31T07:54:22;4.63;;;3.50;;
11008;SDS011;5557;51.670;7.788;2023-08-31T07:56:50;3.43;;;3.13;;
11008;SDS011;5557;51.670;7.788;2023-08-31T07:59:17;5.53;;;3.30;;
11008;SDS011;5557;51.670;7.788;2023-08-31T08:01:44;4.47;;;3.10;;
11008;SDS011;5557;51.670;7.788;2023-08-31T08:04:12;3.27;;;3.07;;
11008;SDS011;5557;51.670;7.788;2023-08-31T08:06:39;5.00;;;3.30;;
11008;SDS011;5557;51.670;7.788;2023-08-31T08:09:07;3.50;;;3.20;;
11008;SDS011;5557;51.670;7.788;2023-08-31T08:11:34;3.63;;;3.20;;
11008;SDS011;5557;51.670;7.788;2023-08-31T08:14:01;9.23;;;2.87;;
11008;SDS011;5557;51.670;7.788;2023-08-31T08:16:29;6.17;;;3.50;;
11008;SDS011;5557;51.670;7.788;2023-08-31T08:18:56;7.33;;;2.67;;
11008;SDS011;5557;51.670;7.788;2023-08-31T08:21:23;3.10;;;2.90;;
11008;SDS011;5557;51.670;7.788;2023-08-31T08:23:53;6.00;;;3.87;;
11008;SDS011;5557;51.670;7.788;2023-08-31T08:26:23;6.33;;;3.00;;
11008;SDS011;5557;51.670;7.788;2023-08-31T08:28:52;6.40;;;3.13;;
11008;SDS011;5557;51.670;7.788;2023-08-31T08:31:19;5.47;;;3.07;;
11008;SDS011;5557;51.670;7.788;2023-08-31T08:33:48;3.73;;;3.00;;
11008;SDS011;5557;51.670;7.788;2023-08-31T08:36:16;4.47;;;3.30;;
11008;SDS011;5557;51.670;7.788;2023-08-31T08:38:43;5.10;;;2.97;;
11008;SDS011;5557;51.670;7.788;2023-08-31T08:41:10;7.07;;;3.17;;
11008;SDS011;5557;51.670;7.788;2023-08-31T08:43:38;7.20;;;3.00;;
11008;SDS011;5557;51.670;7.788;2023-08-31T08:46:13;6.13;;;2.80;;
11008;SDS011;5557;51.670;7.788;2023-08-31T08:48:40;4.50;;;2.90;;
11008;SDS011;5557;51.670;7.788;2023-08-31T08:51:09;6.00;;;3.47;;
11008;SDS011;5557;51.670;7.788;2023-08-31T08:53:44;3.60;;;3.30;;
11008;SDS011;5557;51.670;7.788;2023-08-31T08:56:15;4.93;;;2.80;;
11008;SDS011;5557;51.670;7.788;2023-08-31T08:58:43;6.80;;;2.97;;
11008;SDS011;5557;51.670;7.788;2023-08-31T09:01:10;3.47;;;3.20;;
11008;SDS011;5557;51.670;7.788;2023-08-31T09:03:38;5.77;;;3.03;;
11008;SDS011;5557;51.670;7.788;2023-08-31T09:06:06;3.87;;;2.67;;
11008;SDS011;5557;51.670;7.788;2023-08-31T09:08:34;2.90;;;2.63;;
11008;SDS011;5557;51.670;7.788;2023-08-31T09:11:03;8.67;;;3.40;;
11008;SDS011;5557;51.670;7.788;2023-08-31T09:13:33;10.97;;;3.70;;
11008;SDS011;5557;51.670;7.788;2023-08-31T09:16:00;5.03;;;2.70;;
11008;SDS011;5557;51.670;7.788;2023-08-31T09:18:29;3.73;;;1.90;;
11008;SDS011;5557;51.670;7.788;2023-08-31T09:21:01;2.70;;;2.33;;
11008;SDS011;5557;51.670;7.788;2023-08-31T09:23:28;3.03;;;2.43;;
11008;SDS011;5557;51.670;7.788;2023-08-31T09:25:56;4.70;;;2.40;;
11008;SDS011;5557;51.670;7.788;2023-08-31T09:28:26;7.13;;;3.03;;
11008;SDS011;5557;51.670;7.788;2023-08-31T09:31:04;3.40;;;2.27;;
11008;SDS011;5557;51.670;7.788;2023-08-31T09:33:34;4.27;;;2.17;;
11008;SDS011;5557;51.670;7.788;2023-08-31T09:36:03;4.60;;;2.20;;
11008;SDS011;5557;51.670;7.788;2023-08-31T09:38:40;6.90;;;2.33;;
11008;SDS011;5557;51.670;7.788;2023-08-31T09:41:09;3.20;;;2.27;;
11008;SDS011;5557;51.670;7.788;2023-08-31T09:43:37;4.90;;;2.80;;
11008;SDS011;5557;51.670;7.788;2023-08-31T09:46:04;3.00;;;2.50;;
11008;SDS011;5557;51.670;7.788;2023-08-31T09:48:32;4.27;;;2.63;;
11008;SDS011;5557;51.670;7.788;2023-08-31T09:51:00;5.43;;;2.00;;
11008;SDS011;5557;51.670;7.788;2023-08-31T09:53:30;3.30;;;2.30;;
11008;SDS011;5557;51.670;7.788;2023-08-31T09:55:58;3.50;;;2.50;;
11008;SDS011;5557;51.670;7.788;2023-08-31T09:58:28;4.20;;;2.70;;
11008;SDS011;5557;51.670;7.788;2023-08-31T10:00:57;4.57;;;2.50;;
11008;SDS011;5557;51.670;7.788;2023-08-31T10:03:26;5.77;;;2.90;;
11008;SDS011;5557;51.670;7.788;2023-08-31T10:05:57;4.43;;;2.40;;
11008;SDS011;5557;51.670;7.788;2023-08-31T10:08:25;10.33;;;2.70;;
11008;SDS011;5557;51.670;7.788;2023-08-31T10:10:59;2.67;;;2.47;;
11008;SDS011;5557;51.670;7.788;2023-08-31T10:13:31;3.80;;;2.40;;
11008;SDS011;5557;51.670;7.788;2023-08-31T10:16:06;3.10;;;2.53;;
11008;SDS011;5557;51.670;7.788;2023-08-31T10:18:34;4.80;;;3.10;;
11008;SDS011;5557;51.670;7.788;2023-08-31T10:21:02;4.03;;;2.80;;
11008;SDS011;5557;51.670;7.788;2023-08-31T10:23:30;3.53;;;3.07;;
11008;SDS011;5557;51.670;7.788;2023-08-31T10:25:59;6.90;;;3.00;;
11008;SDS011;5557;51.670;7.788;2023-08-31T10:28:27;4.70;;;3.10;;
11008;SDS011;5557;51.670;7.788;2023-08-31T10:31:01;4.03;;;3.20;;
11008;SDS011;5557;51.670;7.788;2023-08-31T10:33:39;6.97;;;3.70;;
11008;SDS011;5557;51.670;7.788;2023-08-31T10:36:22;3.03;;;2.67;;
11008;SDS011;5557;51.670;7.788;2023-08-31T10:39:14;5.90;;;2.50;;
11008;SDS011;5557;51.670;7.788;2023-08-31T10:41:57;1.77;;;1.67;;
11008;SDS011;5557;51.670;7.788;2023-08-31T10:44:29;3.00;;;1.93;;
11008;SDS011;5557;51.670;7.788;2023-08-31T10:47:00;1.83;;;1.73;;
11008;SDS011;5557;51.670;7.788;2023-08-31T10:49:30;2.00;;;1.67;;
11008;SDS011;5557;51.670;7.788;2023-08-31T10:52:18;5.30;;;2.80;;
11008;SDS011;5557;51.670;7.788;2023-08-31T10:54:51;2.80;;;1.90;;
11008;SDS011;5557;51.670;7.788;2023-08-31T10:57:31;5.00;;;2.00;;
11008;SDS011;5557;51.670;7.788;2023-08-31T11:00:01;3.17;;;2.20;;
11008;SDS011;5557;51.670;7.788;2023-08-31T11:02:36;2.67;;;2.37;;
11008;SDS011;5557;51.670;7.788;2023-08-31T11:05:10;3.77;;;2.33;;
11008;SDS011;5557;51.670;7.788;2023-08-31T11:07:44;2.97;;;2.30;;
11008;SDS011;5557;51.670;7.788;2023-08-31T11:10:18;8.13;;;2.03;;
11008;SDS011;5557;51.670;7.788;2023-08-31T11:12:52;6.13;;;2.23;;
11008;SDS011;5557;51.670;7.788;2023-08-31T11:15:22;6.80;;;2.30;;
11008;SDS011;5557;51.670;7.788;2023-08-31T11:17:51;2.37;;;2.03;;
11008;SDS011;5557;51.670;7.788;2023-08-31T11:20:21;1.70;;;1.57;;
11008;SDS011;5557;51.670;7.788;2023-08-31T11:22:50;2.70;;;2.30;;
11008;SDS011;5557;51.670;7.788;2023-08-31T11:25:23;3.13;;;2.90;;
11008;SDS011;5557;51.670;7.788;2023-08-31T11:27:55;2.57;;;2.37;;
11008;SDS011;5557;51.670;7.788;2023-08-31T11:30:32;2.70;;;2.03;;
11008;SDS011;5557;51.670;7.788;2023-08-31T11:33:07;4.30;;;2.70;;
11008;SDS011;5557;51.670;7.788;2023-08-31T11:35:39;2.47;;;2.27;;
11008;SDS011;5557;51.670;7.788;2023-08-31T11:38:08;2.57;;;2.47;;
11008;SDS011;5557;51.670;7.788;2023-08-31T11:40:35;2.10;;;2.00;;
11008;SDS011;5557;51.670;7.788;2023-08-31T11:43:06;2.70;;;2.07;;
11008;SDS011;5557;51.670;7.788;2023-08-31T11:45:37;5.77;;;2.17;;
11008;SDS011;5557;51.670;7.788;2023-08-31T11:48:06;3.17;;;2.40;;
11008;SDS011;5557;51.670;7.788;2023-08-31T11:50:34;4.03;;;2.80;;
11008;SDS011;5557;51.670;7.788;2023-08-31T11:53:03;2.50;;;2.40;;
11008;SDS011;5557;51.670;7.788;2023-08-31T11:55:30;2.90;;;2.33;;
11008;SDS011;5557;51.670;7.788;2023-08-31T11:58:00;2.40;;;2.30;;
11008;SDS011;5557;51.670;7.788;2023-08-31T12:00:27;2.10;;;1.50;;
11008;SDS011;5557;51.670;7.788;2023-08-31T12:03:01;5.23;;;2.00;;
11008;SDS011;5557;51.670;7.788;2023-08-31T12:05:44;3.00;;;1.90;;
11008;SDS011;5557;51.670;7.788;2023-08-31T12:08:14;3.53;;;1.57;;
11008;SDS011;5557;51.670;7.788;2023-08-31T12:10:45;4.00;;;2.60;;
11008;SDS011;5557;51.670;7.788;2023-08-31T12:13:12;2.33;;;2.13;;
11008;SDS011;5557;51.670;7.788;2023-08-31T12:15:41;3.20;;;2.00;;
11008;SDS011;5557;51.670;7.788;2023-08-31T12:18:10;2.50;;;2.27;;
11008;SDS011;5557;51.670;7.788;2023-08-31T12:20:47;2.10;;;1.87;;
11008;SDS011;5557;51.670;7.788;2023-08-31T12:23:18;3.53;;;2.00;;
11008;SDS011;5557;51.670;7.788;2023-08-31T12:25:48;2.77;;;2.03;;
11008;SDS011;5557;51.670;7.788;2023-08-31T12:28:20;4.30;;;2.10;;
11008;SDS011;5557;51.670;7.788;2023-08-31T12:30:49;2.40;;;1.73;;
11008;SDS011;5557;51.670;7.788;2023-08-31T12:33:17;1.97;;;1.87;;
11008;SDS011;5557;51.670;7.788;2023-08-31T12:35:45;2.00;;;1.80;;
11008;SDS011;5557;51.670;7.788;2023-08-31T12:38:13;3.33;;;2.40;;
11008;SDS011;5557;51.670;7.788;2023-08-31T12:40:40;2.20;;;1.80;;
11008;SDS011;5557;51.670;7.788;2023-08-31T12:43:07;3.50;;;2.27;;
11008;SDS011;5557;51.670;7.788;2023-08-31T12:45:36;9.40;;;2.53;;
11008;SDS011;5557;51.670;7.788;2023-08-31T12:48:04;2.17;;;1.97;;
11008;SDS011;5557;51.670;7.788;2023-08-31T12:50:32;3.57;;;2.13;;
11008;SDS011;5557;51.670;7.788;2023-08-31T12:52:59;5.33;;;2.07;;
11008;SDS011;5557;51.670;7.788;2023-08-31T12:55:26;3.83;;;2.20;;
11008;SDS011;5557;51.670;7.788;2023-08-31T12:57:53;4.30;;;1.97;;
11008;SDS011;5557;51.670;7.788;2023-08-31T13:00:22;2.27;;;2.07;;
11008;SDS011;5557;51.670;7.788;2023-08-31T13:02:50;3.87;;;1.70;;
11008;SDS011;5557;51.670;7.788;2023-08-31T13:05:18;4.00;;;2.30;;
11008;SDS011;5557;51.670;7.788;2023-08-31T13:07:46;2.50;;;2.30;;
11008;SDS011;5557;51.670;7.788;2023-08-31T13:10:14;2.17;;;1.93;;
11008;SDS011;5557;51.670;7.788;2023-08-31T13:12:41;4.93;;;2.77;;
11008;SDS011;5557;51.670;7.788;2023-08-31T13:15:08;3.63;;;2.00;;
11008;SDS011;5557;51.670;7.788;2023-08-31T13:17:36;4.33;;;2.00;;
11008;SDS011;5557;51.670;7.788;2023-08-31T13:20:03;2.40;;;2.20;;
11008;SDS011;5557;51.670;7.788;2023-08-31T13:22:31;2.73;;;2.53;;
11008;SDS011;5557;51.670;7.788;2023-08-31T13:24:59;4.80;;;2.10;;
11008;SDS011;5557;51.670;7.788;2023-08-31T13:27:26;4.50;;;2.50;;
11008;SDS011;5557;51.670;7.788;2023-08-31T13:29:53;4.83;;;2.00;;
11008;SDS011;5557;51.670;7.788;2023-08-31T13:32:21;4.80;;;2.20;;
11008;SDS011;5557;51.670;7.788;2023-08-31T13:34:48;5.00;;;2.47;;
11008;SDS011;5557;51.670;7.788;2023-08-31T13:37:15;5.53;;;2.17;;
11008;SDS011;5557;51.670;7.788;2023-08-31T13:39:42;2.57;;;1.77;;
11008;SDS011;5557;51.670;7.788;2023-08-31T13:42:09;3.63;;;2.00;;
11008;SDS011;5557;51.670;7.788;2023-08-31T13:44:36;4.10;;;1.90;;
11008;SDS011;5557;51.670;7.788;2023-08-31T13:47:03;2.67;;;1.93;;
11008;SDS011;5557;51.670;7.788;2023-08-31T13:49:32;3.90;;;1.83;;
11008;SDS011;5557;51.670;7.788;2023-08-31T13:51:59;2.03;;;1.80;;
11008;SDS011;5557;51.670;7.788;2023-08-31T13:54:26;2.50;;;1.77;;
11008;SDS011;5557;51.670;7.788;2023-08-31T13:56:56;4.20;;;1.53;;
11008;SDS011;5557;51.670;7.788;2023-08-31T13:59:23;6.57;;;2.07;;
11008;SDS011;5557;51.670;7.788;2023-08-31T14:01:50;3.17;;;2.17;;
11008;SDS011;5557;51.670;7.788;2023-08-31T14:04:17;3.67;;;1.73;;
11008;SDS011;5557;51.670;7.788;2023-08-31T14:06:44;5.47;;;1.70;;
11008;SDS011;5557;51.670;7.788;2023-08-31T14:09:11;9.70;;;2.07;;
11008;SDS011;5557;51.670;7.788;2023-08-31T14:11:38;3.57;;;1.97;;
11008;SDS011;5557;51.670;7.788;2023-08-31T14:14:06;2.70;;;1.60;;
11008;SDS011;5557;51.670;7.788;2023-08-31T14:16:37;1.50;;;1.40;;
11008;SDS011;5557;51.670;7.788;2023-08-31T14:19:05;5.73;;;1.67;;
11008;SDS011;5557;51.670;7.788;2023-08-31T14:21:32;4.63;;;1.40;;
11008;SDS011;5557;51.670;7.788;2023-08-31T14:23:59;4.00;;;1.63;;
11008;SDS011;5557;51.670;7.788;2023-08-31T14:26:26;2.80;;;2.30;;
11008;SDS011;5557;51.670;7.788;2023-08-31T14:28:54;2.80;;;1.93;;
11008;SDS011;5557;51.670;7.788;2023-08-31T14:31:28;3.63;;;2.10;;
11008;SDS011;5557;51.670;7.788;2023-08-31T14:33:56;2.80;;;2.67;;
11008;SDS011;5557;51.670;7.788;2023-08-31T14:36:25;3.47;;;2.50;;
11008;SDS011;5557;51.670;7.788;2023-08-31T14:38:58;3.10;;;2.60;;
11008;SDS011;5557;51.670;7.788;2023-08-31T14:41:25;6.23;;;3.30;;
11008;SDS011;5557;51.670;7.788;2023-08-31T14:43:52;4.40;;;2.73;;
11008;SDS011;5557;51.670;7.788;2023-08-31T14:46:19;5.00;;;3.10;;
11008;SDS011;5557;51.670;7.788;2023-08-31T14:48:48;3.67;;;2.87;;
11008;SDS011;5557;51.670;7.788;2023-08-31T14:51:33;3.40;;;2.63;;
11008;SDS011;5557;51.670;7.788;2023-08-31T14:54:21;3.20;;;2.80;;
11008;SDS011;5557;51.670;7.788;2023-08-31T14:57:00;3.83;;;2.43;;
11008;SDS011;5557;51.670;7.788;2023-08-31T14:59:54;6.47;;;2.83;;
11008;SDS011;5557;51.670;7.788;2023-08-31T15:02:28;3.23;;;2.23;;
11008;SDS011;5557;51.670;7.788;2023-08-31T15:05:02;5.23;;;2.40;;
11008;SDS011;5557;51.670;7.788;2023-08-31T15:07:55;2.77;;;2.57;;
11008;SDS011;5557;51.670;7.788;2023-08-31T15:10:42;3.30;;;2.27;;
11008;SDS011;5557;51.670;7.788;2023-08-31T15:13:41;2.07;;;1.90;;